createdAt,value
2023-05-12T17:06:05.845Z,21.98
2023-05-12T17:08:35.905Z,22.20
2023-05-12T17:11:06.388Z,22.27
2023-05-12T17:13:38.408Z,21.96
2023-05-12T17:16:08.202Z,21.42
2023-05-12T17:21:11.784Z,20.59
2023-05-12T17:23:41.017Z,20.33
2023-05-12T17:26:09.939Z,19.87
2023-05-12T17:28:40.998Z,19.75
2023-05-12T17:31:10.714Z,19.63
2023-05-12T17:33:39.606Z,19.43
2023-05-12T17:36:13.111Z,19.39
2023-05-12T17:38:43.942Z,19.18
2023-05-12T17:41:13.649Z,19.31
2023-05-12T17:43:42.592Z,19.44
2023-05-12T17:46:11.877Z,19.79
2023-05-12T17:48:40.867Z,19.95
2023-05-12T17:51:10.973Z,19.96
2023-05-12T17:53:40.180Z,19.90
2023-05-12T17:56:09.309Z,19.87
2023-05-12T17:58:38.224Z,19.30
2023-05-12T18:01:07.279Z,19.23
2023-05-12T18:03:37.938Z,18.93
2023-05-12T18:06:08.847Z,18.54
2023-05-12T18:08:38.938Z,18.31
2023-05-12T18:11:07.831Z,18.16
2023-05-12T18:13:36.566Z,18.02
2023-05-12T18:16:07.413Z,17.76
2023-05-12T18:18:37.756Z,17.65
2023-05-12T18:21:07.421Z,17.51
2023-05-12T18:23:36.140Z,17.37
2023-05-12T18:26:06.338Z,17.31
2023-05-12T18:28:35.056Z,17.16
2023-05-12T18:31:15.083Z,17.00
2023-05-12T18:33:48.417Z,16.88
2023-05-12T18:36:17.600Z,16.80
2023-05-12T18:38:46.590Z,16.51
2023-05-12T18:41:17.077Z,16.40
2023-05-12T18:43:46.127Z,16.36
2023-05-12T18:46:15.296Z,16.27
2023-05-12T18:48:44.293Z,16.17
2023-05-12T18:51:12.998Z,16.06
2023-05-12T18:53:41.803Z,15.95
2023-05-12T18:56:10.650Z,15.85
2023-05-12T18:58:40.853Z,15.77
2023-05-12T19:01:09.663Z,15.68
2023-05-12T19:03:38.494Z,15.61
2023-05-12T19:06:07.362Z,15.59
2023-05-12T19:08:36.049Z,15.49
2023-05-12T19:11:05.148Z,15.44
2023-05-12T19:13:33.831Z,15.35
2023-05-12T19:16:03.947Z,15.32
2023-05-12T19:18:32.639Z,15.25
2023-05-12T19:21:02.682Z,15.19
2023-05-12T19:23:32.098Z,15.07
2023-05-12T19:26:00.807Z,15.09
2023-05-12T19:28:29.608Z,14.95
2023-05-12T19:30:58.281Z,14.92
2023-05-12T19:33:29.431Z,14.81
2023-05-12T19:35:58.231Z,14.74
2023-05-12T19:38:27.048Z,14.67
2023-05-12T19:40:55.809Z,14.67
2023-05-12T19:43:24.552Z,14.66
2023-05-12T19:45:53.268Z,14.59
2023-05-12T19:48:22.273Z,14.55
2023-05-12T19:50:52.358Z,14.46
2023-05-12T19:53:21.078Z,14.48
2023-05-12T19:55:49.793Z,14.37
2023-05-12T19:58:18.527Z,14.31
2023-05-12T20:00:47.499Z,14.30
2023-05-12T20:03:17.252Z,14.20
2023-05-12T20:05:48.351Z,14.15
2023-05-12T20:08:18.655Z,14.06
2023-05-12T20:10:47.309Z,14.02
2023-05-12T20:13:15.997Z,13.97
2023-05-12T20:15:45.402Z,13.84
2023-05-12T20:18:15.738Z,13.80
2023-05-12T20:20:44.668Z,13.80
2023-05-12T20:23:13.431Z,13.75
2023-05-12T20:25:43.681Z,13.71
2023-05-12T20:28:12.504Z,13.67
2023-05-12T20:30:41.546Z,13.67
2023-05-12T20:33:10.265Z,13.67
2023-05-12T20:35:39.008Z,13.69
2023-05-12T20:38:07.692Z,13.66
2023-05-12T20:40:36.478Z,13.62
2023-05-12T20:43:06.508Z,13.62
2023-05-12T20:45:35.311Z,13.58
2023-05-12T20:48:04.921Z,13.53
2023-05-12T20:50:33.720Z,13.57
2023-05-12T20:53:03.403Z,13.53
2023-05-12T20:55:34.463Z,13.52
2023-05-12T20:58:03.196Z,13.54
2023-05-12T21:00:33.431Z,13.58
2023-05-12T21:03:03.908Z,13.51
2023-05-12T21:05:32.792Z,13.53
2023-05-12T21:08:01.509Z,13.52
2023-05-12T21:10:32.731Z,13.48
2023-05-12T21:13:01.593Z,13.48
2023-05-12T21:15:30.394Z,13.43
2023-05-12T21:18:00.519Z,13.44
2023-05-12T21:20:29.260Z,13.41
2023-05-12T21:22:58.036Z,13.34
2023-05-12T21:25:27.250Z,13.36
2023-05-12T21:27:55.975Z,13.30
2023-05-12T21:30:24.913Z,13.30
2023-05-12T21:32:53.594Z,13.23
2023-05-12T21:35:23.994Z,13.22
2023-05-12T21:37:52.629Z,13.20
2023-05-12T21:40:21.550Z,13.07
2023-05-12T21:42:50.489Z,13.05
2023-05-12T21:45:21.572Z,13.04
2023-05-12T21:47:51.453Z,13.04
2023-05-12T21:50:21.757Z,13.02
2023-05-12T21:52:52.201Z,12.88
2023-05-12T21:55:20.926Z,12.90
2023-05-12T21:57:49.623Z,12.86
2023-05-12T22:00:20.288Z,12.81
2023-05-12T22:02:49.272Z,12.82
2023-05-12T22:05:18.095Z,12.70
2023-05-12T22:07:46.809Z,12.71
2023-05-12T22:10:16.862Z,12.69
2023-05-12T22:12:45.966Z,12.60
2023-05-12T22:15:14.780Z,12.64
2023-05-12T22:17:43.467Z,12.60
2023-05-12T22:20:14.000Z,12.56
2023-05-12T22:22:42.682Z,12.54
2023-05-12T22:25:11.729Z,12.49
2023-05-12T22:27:41.852Z,12.48
2023-05-12T22:30:11.651Z,12.45
2023-05-12T22:32:40.441Z,12.45
2023-05-12T22:35:11.283Z,12.36
2023-05-12T22:37:40.567Z,12.30
2023-05-12T22:40:10.879Z,12.27
2023-05-12T22:42:39.490Z,12.29
2023-05-12T22:45:10.903Z,12.22
2023-05-12T22:47:39.623Z,12.25
2023-05-12T22:50:09.368Z,12.20
2023-05-12T22:52:38.112Z,12.16
2023-05-12T22:55:08.100Z,12.12
2023-05-12T22:57:38.570Z,12.08
2023-05-12T23:00:11.635Z,12.10
2023-05-12T23:02:40.419Z,12.04
2023-05-12T23:05:10.343Z,12.06
2023-05-12T23:07:39.027Z,12.08
2023-05-12T23:10:09.554Z,12.01
2023-05-12T23:12:38.459Z,12.00
2023-05-12T23:15:10.010Z,11.98
2023-05-12T23:17:38.772Z,11.89
2023-05-12T23:20:09.692Z,11.91
2023-05-12T23:22:38.467Z,11.85
2023-05-12T23:25:08.299Z,11.78
2023-05-12T23:27:37.682Z,11.83
2023-05-12T23:30:09.783Z,11.81
2023-05-12T23:32:38.685Z,11.71
2023-05-12T23:35:09.552Z,11.73
2023-05-12T23:37:38.457Z,11.70
2023-05-12T23:40:09.338Z,11.67
2023-05-12T23:42:38.055Z,11.63
2023-05-12T23:45:09.924Z,11.68
2023-05-12T23:47:38.637Z,11.64
2023-05-12T23:50:09.330Z,11.54
2023-05-12T23:52:38.098Z,11.55
2023-05-12T23:55:08.167Z,11.59
2023-05-12T23:57:36.911Z,11.54
